EDLN

Mönchengladbach Airport

Mönchengladbach, Germany
TAF EDLN 170800Z 1709/1718 VRB03KT CAVOK BECMG 1709/1711 09008KT
Issued Valid From Valid To
Nov-17 @ 08:00 UTC
(57 minutes ago)
Nov-17 @ 09:00 UTC
(in 3 minutes)
Nov-17 @ 18:00 UTC
(in 9 hours)
Nov-17 @ 09:00 to Nov-17 @ 18:00
TAF EDLN 170800Z 1709/1718 VRB03KT CAVOK
Wind Visibility Clouds Conditions
Variable at 3 knots 10,000+ meters
  • No significant clouds
Becoming Nov-17 @ 09:00 to Nov-17 @ 18:00
BECMG 1709/1711 09008KT
Wind Visibility Clouds Conditions
90° at 8 knots 10,000+ meters
  • No significant clouds
TAF EDLN 170800Z 1709/1718 VRB03KT CAVOK BECMG 1709/1711 09008KT
Issued Nov-17 @ 08:00 UTC
(57 minutes ago)
Valid From Nov-17 @ 09:00 UTC
(in 3 minutes)
Valid To Nov-17 @ 18:00 UTC
(in 9 hours)
Nov-17 @ 09:00 - Nov-17 @ 18:00
Wind Visibility
Variable at 3 knots 10,000+ meters
Clouds
  • No significant clouds
Conditions
Becoming Nov-17 @ 09:00 - Nov-17 @ 18:00
Wind Visibility
90° at 8 knots 10,000+ meters
Clouds
  • No significant clouds
Conditions